Time;durP1;ratioP1;P1;durP2;ratioP2;P2;SDS_P1;SDS_P2;PMS_P1;PMS_P2;Temp;Humidity;BMP_temperature;BMP_pressure;BME280_temperature;BME280_humidity;BME280_pressure;Samples;Min_cycle;Max_cycle;Signal;HPM_P1;HPM_P2
2022/01/30 00:00:17;;;;;;;12.07;3.30;;;8.40;99.90;;;;;;5003434;28;20268;-74
2022/01/30 00:02:45;;;;;;;13.45;4.25;;;8.40;99.90;;;;;;5003433;28;20276;-74
2022/01/30 00:05:13;;;;;;;17.73;3.95;;;8.40;99.90;;;;;;5009828;28;20226;-74
2022/01/30 00:07:41;;;;;;;10.30;4.07;;;8.40;99.90;;;;;;5008856;28;20228;-73
2022/01/30 00:10:12;;;;;;;15.55;3.92;;;8.40;99.90;;;;;;5004536;28;20284;-71
2022/01/30 00:12:46;;;;;;;11.82;3.45;;;8.40;99.90;;;;;;5005344;28;20268;-72
2022/01/30 00:15:16;;;;;;;18.17;4.90;;;8.50;99.90;;;;;;5005876;28;20231;-72
2022/01/30 00:17:49;;;;;;;14.55;4.40;;;8.50;99.90;;;;;;5014344;28;20208;-72
2022/01/30 00:20:21;;;;;;;11.07;4.00;;;8.50;99.90;;;;;;5013851;28;20674;-73
2022/01/30 00:22:56;;;;;;;15.10;4.13;;;8.50;99.90;;;;;;5013937;28;20198;-72
2022/01/30 00:25:34;;;;;;;12.60;3.95;;;8.60;99.90;;;;;;5014620;28;20212;-74
2022/01/30 00:28:06;;;;;;;18.60;4.55;;;8.60;99.90;;;;;;5013486;28;20201;-71
2022/01/30 00:30:35;;;;;;;12.40;3.35;;;8.60;99.90;;;;;;5011016;28;20223;-73
2022/01/30 00:33:04;;;;;;;15.43;3.90;;;8.60;99.90;;;;;;5012366;28;20217;-71
2022/01/30 00:35:35;;;;;;;21.20;4.28;;;8.60;99.90;;;;;;5013444;28;20201;-71
2022/01/30 00:38:06;;;;;;;13.68;3.80;;;8.50;99.90;;;;;;5012763;28;20216;-71
2022/01/30 00:40:36;;;;;;;17.40;3.60;;;8.50;99.90;;;;;;5007358;28;20263;-71
2022/01/30 00:43:05;;;;;;;11.50;3.28;;;8.50;99.90;;;;;;5007297;28;20201;-71
2022/01/30 00:45:34;;;;;;;18.45;3.67;;;8.50;99.90;;;;;;5007358;28;20251;-71
2022/01/30 00:48:02;;;;;;;11.63;4.10;;;8.50;99.90;;;;;;5013150;28;20275;-71
2022/01/30 00:50:30;;;;;;;10.43;3.45;;;8.50;99.90;;;;;;5007569;28;20202;-71
2022/01/30 00:52:58;;;;;;;10.45;3.10;;;8.50;99.90;;;;;;5013157;28;20287;-71
2022/01/30 00:55:28;;;;;;;9.23;3.85;;;8.50;99.90;;;;;;5013143;28;20193;-71
2022/01/30 00:57:57;;;;;;;13.30;3.92;;;8.40;99.90;;;;;;5013478;28;20333;-69
2022/01/30 01:00:27;;;;;;;14.45;4.45;;;8.40;99.90;;;;;;5013361;28;20236;-72
2022/01/30 01:02:55;;;;;;;19.02;4.05;;;8.50;99.90;;;;;;5013261;28;20197;-71
2022/01/30 01:05:24;;;;;;;12.82;5.32;;;8.50;99.90;;;;;;5012922;28;20197;-71
2022/01/30 01:07:55;;;;;;;9.32;3.05;;;8.50;99.90;;;;;;5013108;28;20296;-72
2022/01/30 01:10:35;;;;;;;12.60;3.90;;;8.40;99.90;;;;;;5013355;28;20629;-72
2022/01/30 01:24:06;;;;;;;9.43;3.67;;;8.40;99.90;;;;;;5012762;28;20225;-71
2022/01/30 01:26:37;;;;;;;12.77;3.97;;;8.30;99.90;;;;;;5007143;28;20308;-72
2022/01/30 01:29:06;;;;;;;9.20;3.85;;;8.30;99.90;;;;;;5012886;28;20232;-72
2022/01/30 01:31:35;;;;;;;13.27;4.57;;;8.30;99.90;;;;;;4994974;28;20272;-72
2022/01/30 01:34:18;;;;;;;10.35;3.75;;;8.20;99.90;;;;;;5012633;28;20229;-71
2022/01/30 01:36:45;;;;;;;13.88;3.45;;;8.20;99.90;;;;;;5013637;28;20572;-71
2022/01/30 01:39:13;;;;;;;16.92;5.20;;;8.30;99.90;;;;;;5015322;28;20292;-71
2022/01/30 01:41:41;;;;;;;17.52;4.05;;;8.20;99.90;;;;;;5012615;28;20271;-71
2022/01/30 01:44:16;;;;;;;17.17;4.75;;;8.20;99.90;;;;;;5012345;28;20232;-71
2022/01/30 01:46:47;;;;;;;14.57;4.07;;;8.10;99.90;;;;;;5012627;28;20197;-70
2022/01/30 01:49:20;;;;;;;14.50;4.80;;;8.20;99.90;;;;;;5012401;28;20271;-72
2022/01/30 01:52:00;;;;;;;16.13;4.55;;;8.20;99.90;;;;;;5012509;28;20319;-72
2022/01/30 01:54:28;;;;;;;17.95;3.70;;;8.20;99.90;;;;;;5012579;28;20236;-72
2022/01/30 01:56:56;;;;;;;17.63;4.03;;;8.10;99.90;;;;;;5012450;28;20255;-72
2022/01/30 01:59:24;;;;;;;14.88;3.88;;;8.20;99.90;;;;;;5011955;28;20736;-72
2022/01/30 02:01:54;;;;;;;13.63;3.30;;;8.10;99.90;;;;;;5012292;28;20777;-72
2022/01/30 02:04:22;;;;;;;15.50;4.63;;;8.10;99.90;;;;;;5012196;28;20205;-71
2022/01/30 02:06:59;;;;;;;13.68;3.22;;;8.10;99.90;;;;;;5011840;28;20284;-70
2022/01/30 02:09:30;;;;;;;12.18;4.30;;;8.10;99.90;;;;;;5012091;28;20209;-72
2022/01/30 02:11:58;;;;;;;10.88;3.50;;;8.00;99.90;;;;;;5011981;28;20797;-71
2022/01/30 02:14:37;;;;;;;9.55;3.67;;;8.00;99.90;;;;;;5012321;28;20218;-71
2022/01/30 02:25:43;;;;;;;11.32;3.67;;;7.90;99.90;;;;;;4988391;28;20294;-72
2022/01/30 02:28:14;;;;;;;14.13;3.60;;;7.90;99.90;;;;;;5011890;28;20205;-71
2022/01/30 02:30:48;;;;;;;10.85;4.55;;;7.80;99.90;;;;;;5011148;28;20307;-71
2022/01/30 02:33:16;;;;;;;15.77;4.50;;;7.80;99.90;;;;;;5011678;28;20597;-71
2022/01/30 02:35:44;;;;;;;13.55;4.28;;;7.80;99.90;;;;;;5011389;28;20296;-71
2022/01/30 02:38:15;;;;;;;12.73;3.78;;;7.80;99.90;;;;;;5011730;28;20241;-71
2022/01/30 02:40:46;;;;;;;10.10;3.47;;;7.70;99.90;;;;;;5011984;28;20580;-71
2022/01/30 02:43:17;;;;;;;15.40;3.80;;;7.70;99.90;;;;;;5018425;28;20272;-72
2022/01/30 02:45:52;;;;;;;13.68;3.47;;;7.70;99.90;;;;;;5015491;28;20620;-72
2022/01/30 02:48:30;;;;;;;11.00;4.05;;;7.70;99.90;;;;;;5011435;28;20232;-71
2022/01/30 02:51:10;;;;;;;12.90;4.28;;;7.70;99.90;;;;;;5011610;28;20263;-72
2022/01/30 02:53:42;;;;;;;11.98;3.97;;;7.60;99.90;;;;;;5011296;28;20299;-71
2022/01/30 02:56:10;;;;;;;12.43;3.15;;;7.60;99.90;;;;;;5011721;28;20289;-71
2022/01/30 02:58:38;;;;;;;12.23;3.15;;;7.60;99.90;;;;;;5011565;28;20237;-72
2022/01/30 03:01:06;;;;;;;9.35;3.67;;;7.60;99.90;;;;;;5011208;28;20260;-72
2022/01/30 03:03:34;;;;;;;7.63;3.17;;;7.60;99.90;;;;;;5011106;28;20276;-71
2022/01/30 03:06:02;;;;;;;14.85;3.20;;;7.50;99.90;;;;;;4993769;28;20791;-72
2022/01/30 03:08:30;;;;;;;12.57;3.28;;;7.60;99.90;;;;;;5012012;28;20233;-72
2022/01/30 03:10:59;;;;;;;15.25;4.40;;;7.60;99.90;;;;;;5011557;28;20256;-73
2022/01/30 03:13:27;;;;;;;11.50;3.05;;;7.50;99.90;;;;;;5011409;28;20292;-72
2022/01/30 03:15:56;;;;;;;10.90;3.58;;;7.50;99.90;;;;;;5011749;28;20320;-72
2022/01/30 03:18:24;;;;;;;16.15;3.60;;;7.60;99.90;;;;;;5011452;28;20213;-73
2022/01/30 03:20:52;;;;;;;10.63;3.80;;;7.50;99.90;;;;;;5011234;28;20291;-72
2022/01/30 03:23:20;;;;;;;12.52;3.97;;;7.50;99.90;;;;;;5011361;28;20232;-72
2022/01/30 03:25:53;;;;;;;13.88;3.58;;;7.50;99.90;;;;;;5011437;28;20198;-73
2022/01/30 03:28:22;;;;;;;12.18;3.17;;;7.40;99.90;;;;;;4993982;28;20309;-72
2022/01/30 03:30:54;;;;;;;16.52;4.40;;;7.40;99.90;;;;;;5009585;28;20796;-71
2022/01/30 03:33:23;;;;;;;11.95;4.03;;;7.40;99.90;;;;;;5009249;28;20308;-73
2022/01/30 03:35:51;;;;;;;13.68;3.55;;;7.30;99.90;;;;;;5010082;28;20663;-72
2022/01/30 03:38:20;;;;;;;11.25;2.90;;;7.30;99.90;;;;;;5005315;28;20232;-73
2022/01/30 03:40:48;;;;;;;14.30;3.95;;;7.30;99.90;;;;;;5010687;28;20312;-73
2022/01/30 03:43:17;;;;;;;17.50;4.00;;;7.30;99.90;;;;;;5011225;28;20643;-74
2022/01/30 03:45:47;;;;;;;11.85;4.25;;;7.30;99.90;;;;;;5011282;28;20352;-73
2022/01/30 03:48:15;;;;;;;16.42;4.88;;;7.30;99.90;;;;;;4994017;28;20683;-73
2022/01/30 03:50:43;;;;;;;11.65;3.70;;;7.30;99.90;;;;;;5015496;28;20325;-73
2022/01/30 03:53:12;;;;;;;18.00;4.55;;;7.20;99.90;;;;;;5010731;28;20205;-73
2022/01/30 03:55:40;;;;;;;13.07;4.25;;;7.20;99.90;;;;;;5011547;28;20693;-73
2022/01/30 03:58:08;;;;;;;9.82;3.92;;;7.20;99.90;;;;;;5011884;28;20285;-74
2022/01/30 04:00:36;;;;;;;17.77;4.90;;;7.20;99.90;;;;;;5011369;28;20948;-73
2022/01/30 04:03:05;;;;;;;17.25;4.80;;;7.20;99.90;;;;;;5010393;28;20628;-73
2022/01/30 04:05:34;;;;;;;12.43;4.35;;;7.20;99.90;;;;;;4998681;28;20205;-73
2022/01/30 04:08:03;;;;;;;14.00;3.45;;;7.20;99.90;;;;;;4999227;28;20226;-72
2022/01/30 04:10:32;;;;;;;13.38;4.30;;;7.20;99.90;;;;;;4996686;28;20255;-72
2022/01/30 04:13:00;;;;;;;13.65;4.53;;;7.20;99.90;;;;;;5000243;28;20226;-72
2022/01/30 04:15:28;;;;;;;11.27;3.35;;;7.10;99.90;;;;;;5001805;28;20280;-73
2022/01/30 04:17:57;;;;;;;21.15;5.28;;;7.20;99.90;;;;;;5006080;28;20260;-73
2022/01/30 04:20:26;;;;;;;11.98;3.65;;;7.20;99.90;;;;;;5005972;28;20716;-73
2022/01/30 04:22:55;;;;;;;13.57;3.63;;;7.10;99.90;;;;;;5010728;28;20297;-73
2022/01/30 04:25:23;;;;;;;11.77;3.78;;;7.20;99.90;;;;;;5003041;28;20190;-72
2022/01/30 04:27:52;;;;;;;11.60;3.10;;;7.20;99.90;;;;;;5005342;28;20234;-73
2022/01/30 04:30:21;;;;;;;18.85;4.28;;;7.10;99.90;;;;;;5004756;28;20655;-72
2022/01/30 04:32:49;;;;;;;13.18;3.85;;;6.80;99.90;;;;;;5013815;28;20206;-73
2022/01/30 04:35:23;;;;;;;9.75;4.07;;;7.10;99.90;;;;;;5011144;28;20300;-73
2022/01/30 04:38:02;;;;;;;14.57;4.72;;;7.10;99.90;;;;;;5009640;28;20702;-73
2022/01/30 04:57:22;;;;;;;14.63;4.45;;;6.80;99.90;;;;;;5004366;28;20198;-72
2022/01/30 05:00:06;;;;;;;16.95;4.10;;;6.80;99.90;;;;;;4999927;28;20284;-72
2022/01/30 05:02:51;;;;;;;15.05;4.05;;;6.80;99.90;;;;;;4997783;28;20229;-72
2022/01/30 05:05:41;;;;;;;18.80;4.40;;;6.70;99.90;;;;;;4994277;28;20201;-72
2022/01/30 05:08:10;;;;;;;11.55;4.63;;;6.70;99.90;;;;;;5001659;28;20229;-73
2022/01/30 05:10:39;;;;;;;16.70;3.60;;;6.70;99.90;;;;;;5005734;28;20317;-73
2022/01/30 05:13:11;;;;;;;14.10;4.25;;;6.60;99.90;;;;;;4998075;28;20206;-73
2022/01/30 05:15:39;;;;;;;14.40;3.95;;;6.60;99.90;;;;;;5001385;28;20749;-73
2022/01/30 05:18:08;;;;;;;19.20;3.67;;;6.50;99.90;;;;;;4999593;28;21061;-73
2022/01/30 05:20:37;;;;;;;17.27;4.68;;;6.50;99.90;;;;;;4999311;28;20252;-74
2022/01/30 05:23:05;;;;;;;14.85;4.63;;;6.50;99.90;;;;;;4997146;28;20284;-74
2022/01/30 05:25:34;;;;;;;20.27;4.35;;;6.50;99.90;;;;;;5003600;28;20198;-73
2022/01/30 05:28:06;;;;;;;13.98;3.95;;;6.40;99.90;;;;;;5001930;28;20281;-73
2022/01/30 05:30:35;;;;;;;10.93;3.10;;;6.50;99.90;;;;;;4997962;28;20575;-74
2022/01/30 05:33:03;;;;;;;16.05;3.88;;;6.50;99.90;;;;;;5002888;28;20583;-73
2022/01/30 05:35:32;;;;;;;11.30;3.35;;;6.40;99.90;;;;;;5002913;28;20300;-73
2022/01/30 05:38:00;;;;;;;19.50;5.43;;;6.40;99.90;;;;;;5003727;28;20292;-73
2022/01/30 05:40:29;;;;;;;15.05;3.80;;;6.40;99.90;;;;;;4997528;28;20214;-73
2022/01/30 05:42:57;;;;;;;16.13;4.10;;;6.40;99.90;;;;;;5002605;28;20265;-73
2022/01/30 05:45:31;;;;;;;10.23;3.45;;;6.40;99.90;;;;;;5003673;28;20280;-72
2022/01/30 05:48:04;;;;;;;18.88;3.63;;;6.40;99.90;;;;;;4998815;28;20852;-73
2022/01/30 05:50:32;;;;;;;17.58;3.95;;;6.40;99.90;;;;;;4996466;28;20285;-73
2022/01/30 05:53:00;;;;;;;18.98;4.25;;;6.40;99.90;;;;;;5000049;28;20281;-73
2022/01/30 05:55:30;;;;;;;12.40;3.35;;;6.40;99.90;;;;;;4999093;28;20309;-72
2022/01/30 05:57:59;;;;;;;13.45;4.00;;;6.40;99.90;;;;;;4998690;28;20289;-73
2022/01/30 06:00:28;;;;;;;16.90;3.83;;;6.40;99.90;;;;;;5001110;28;20209;-73
2022/01/30 06:02:56;;;;;;;15.93;3.85;;;6.30;99.90;;;;;;5005866;28;20225;-72
2022/01/30 06:05:25;;;;;;;10.52;2.92;;;6.40;99.90;;;;;;5003236;28;20189;-71
2022/01/30 06:07:54;;;;;;;11.80;4.00;;;6.40;99.90;;;;;;5004005;28;20292;-72
2022/01/30 06:10:26;;;;;;;21.10;5.00;;;6.30;99.90;;;;;;4996982;28;20719;-72
2022/01/30 06:12:54;;;;;;;13.55;3.00;;;6.30;99.90;;;;;;5002958;28;20245;-73
2022/01/30 06:15:21;;;;;;;11.65;4.70;;;6.30;99.90;;;;;;4997912;28;20301;-73
2022/01/30 06:17:51;;;;;;;12.55;4.03;;;6.30;99.90;;;;;;5004887;28;20275;-73
2022/01/30 06:20:19;;;;;;;10.90;3.60;;;6.30;99.90;;;;;;4997302;28;20224;-73
2022/01/30 06:22:47;;;;;;;17.33;3.70;;;6.20;99.90;;;;;;4998916;28;20710;-74
2022/01/30 06:25:15;;;;;;;8.75;3.53;;;6.20;99.90;;;;;;5003042;28;20200;-73
2022/01/30 06:27:43;;;;;;;12.23;3.60;;;6.20;99.90;;;;;;5000117;28;20587;-72
2022/01/30 06:30:12;;;;;;;14.25;3.75;;;6.20;99.90;;;;;;4996345;28;20288;-72
2022/01/30 06:32:40;;;;;;;16.90;4.07;;;6.20;99.90;;;;;;4998372;28;20221;-73
2022/01/30 06:35:10;;;;;;;12.48;3.03;;;6.20;99.90;;;;;;5003688;28;20786;-73
2022/01/30 06:37:37;;;;;;;20.52;5.28;;;6.20;99.90;;;;;;5006623;28;20224;-72
2022/01/30 06:40:06;;;;;;;18.70;4.07;;;6.20;99.90;;;;;;5005037;28;20284;-72
2022/01/30 06:42:34;;;;;;;19.73;4.63;;;6.30;99.90;;;;;;4998704;28;20693;-72
2022/01/30 06:45:03;;;;;;;13.93;4.00;;;6.30;99.90;;;;;;4999964;28;20221;-73
2022/01/30 06:47:31;;;;;;;19.67;4.55;;;6.20;99.90;;;;;;4996683;28;20206;-73
2022/01/30 06:49:59;;;;;;;12.32;3.60;;;6.20;99.90;;;;;;4999429;28;20204;-73
2022/01/30 06:52:28;;;;;;;12.30;3.97;;;6.20;99.90;;;;;;4998317;28;20304;-73
2022/01/30 06:54:56;;;;;;;15.73;4.45;;;6.20;99.90;;;;;;4996845;28;20209;-73
2022/01/30 06:57:24;;;;;;;13.02;3.92;;;6.20;99.90;;;;;;4984971;28;20204;-73
2022/01/30 06:59:52;;;;;;;16.38;3.80;;;6.10;99.90;;;;;;5002057;28;20268;-73
2022/01/30 07:02:20;;;;;;;11.75;3.58;;;6.10;99.90;;;;;;4998426;28;20324;-73
2022/01/30 07:04:48;;;;;;;12.48;3.83;;;6.20;99.90;;;;;;4999373;28;20201;-73
2022/01/30 07:07:16;;;;;;;14.35;3.60;;;6.20;99.90;;;;;;5003158;28;20276;-73
2022/01/30 07:09:45;;;;;;;13.77;3.60;;;6.20;99.90;;;;;;4988296;28;20296;-73
2022/01/30 07:12:13;;;;;;;9.63;3.13;;;6.20;99.90;;;;;;4997968;28;20304;-73
2022/01/30 07:14:42;;;;;;;16.63;3.15;;;6.30;99.90;;;;;;5001125;28;20231;-73
2022/01/30 07:17:10;;;;;;;12.70;4.43;;;6.20;99.90;;;;;;4998000;28;20264;-72
2022/01/30 07:19:38;;;;;;;14.73;4.05;;;6.00;99.90;;;;;;5001004;28;20318;-73
2022/01/30 07:22:06;;;;;;;10.25;3.38;;;6.00;99.90;;;;;;4997517;28;20260;-73
2022/01/30 07:24:34;;;;;;;20.00;4.70;;;5.90;99.90;;;;;;5006206;28;20194;-72
2022/01/30 07:27:04;;;;;;;14.82;4.20;;;5.90;99.90;;;;;;4998066;28;20197;-73
2022/01/30 07:29:32;;;;;;;19.80;3.55;;;5.90;99.90;;;;;;4998637;28;20198;-73
2022/01/30 07:32:00;;;;;;;12.57;2.72;;;5.90;99.90;;;;;;4996944;28;20331;-71
2022/01/30 07:34:28;;;;;;;12.73;3.40;;;6.00;99.90;;;;;;5000306;28;20201;-72
2022/01/30 07:36:57;;;;;;;19.15;4.50;;;6.10;99.90;;;;;;5000220;28;20214;-72
2022/01/30 07:39:28;;;;;;;8.82;3.67;;;6.10;99.90;;;;;;5000604;28;20252;-71
2022/01/30 07:41:56;;;;;;;12.07;3.58;;;6.10;99.90;;;;;;4996477;28;20245;-70
2022/01/30 07:44:25;;;;;;;15.65;4.55;;;6.10;99.90;;;;;;4999487;28;20722;-70
2022/01/30 07:46:53;;;;;;;12.52;3.65;;;6.10;99.90;;;;;;5002265;28;20288;-73
2022/01/30 07:49:21;;;;;;;11.27;4.10;;;6.10;99.90;;;;;;5002862;28;20289;-73
2022/01/30 07:51:49;;;;;;;8.85;2.90;;;6.10;99.90;;;;;;4999531;28;20414;-72
2022/01/30 07:54:17;;;;;;;11.98;3.60;;;6.10;99.90;;;;;;5000723;28;20256;-72
2022/01/30 07:56:45;;;;;;;14.82;3.55;;;6.10;99.90;;;;;;5002892;28;20308;-70
2022/01/30 07:59:13;;;;;;;13.90;3.28;;;6.20;99.90;;;;;;5000660;28;21679;-72
2022/01/30 08:01:42;;;;;;;9.90;3.15;;;6.20;99.90;;;;;;5000813;28;20316;-72
2022/01/30 08:04:11;;;;;;;12.98;3.15;;;6.30;99.90;;;;;;5007590;28;20205;-71
2022/01/30 08:06:38;;;;;;;12.68;3.45;;;6.20;99.90;;;;;;5005696;28;20201;-72
2022/01/30 08:09:06;;;;;;;10.48;3.05;;;6.30;99.90;;;;;;5005775;28;20284;-71
2022/01/30 08:11:34;;;;;;;6.82;2.85;;;6.30;99.90;;;;;;5009379;28;20249;-72
2022/01/30 08:14:02;;;;;;;11.63;2.92;;;6.30;99.90;;;;;;5005224;28;20288;-72
2022/01/30 08:16:30;;;;;;;14.68;3.28;;;6.40;99.90;;;;;;5009054;28;20706;-72
2022/01/30 08:18:59;;;;;;;12.65;3.42;;;6.30;99.90;;;;;;5009171;28;20205;-71
2022/01/30 08:21:27;;;;;;;10.85;3.55;;;6.40;99.90;;;;;;5008767;28;20253;-72
2022/01/30 08:23:55;;;;;;;11.38;3.38;;;6.40;99.90;;;;;;5008191;28;20229;-72
2022/01/30 08:26:23;;;;;;;14.45;3.30;;;6.50;99.90;;;;;;5014643;28;20276;-73
2022/01/30 08:28:51;;;;;;;11.73;2.78;;;6.50;99.90;;;;;;5013705;28;20255;-74
2022/01/30 08:31:19;;;;;;;9.75;2.78;;;6.50;99.90;;;;;;5013873;28;20276;-74
2022/01/30 08:33:47;;;;;;;10.05;2.50;;;6.50;99.90;;;;;;5013917;28;20216;-75
2022/01/30 08:36:16;;;;;;;10.43;2.80;;;6.50;99.90;;;;;;5012246;28;20252;-75
2022/01/30 08:38:44;;;;;;;10.50;3.55;;;6.50;99.90;;;;;;5013854;28;20288;-72
2022/01/30 08:41:11;;;;;;;12.98;3.40;;;6.50;99.90;;;;;;5013869;28;20315;-75
2022/01/30 08:43:39;;;;;;;11.48;3.20;;;6.50;99.90;;;;;;5013412;28;20296;-74
2022/01/30 08:46:07;;;;;;;17.42;3.78;;;6.50;99.90;;;;;;5013884;28;20223;-73
2022/01/30 08:48:35;;;;;;;10.75;4.20;;;6.60;99.90;;;;;;5013396;28;20185;-70
2022/01/30 08:51:03;;;;;;;79.53;58.00;;;6.60;99.90;;;;;;5013515;28;20316;-70
2022/01/30 08:53:32;;;;;;;120.55;93.10;;;7.60;99.90;;;;;;5013404;28;20255;-71
2022/01/30 08:56:00;;;;;;;101.63;73.97;;;8.10;99.90;;;;;;5010027;28;20243;-71
2022/01/30 08:58:29;;;;;;;19.05;9.70;;;9.10;99.90;;;;;;4993183;28;20194;-71
2022/01/30 09:00:58;;;;;;;30.27;20.17;;;9.20;99.90;;;;;;5012892;28;20321;-71
2022/01/30 09:03:26;;;;;;;17.02;7.57;;;9.60;99.90;;;;;;5011704;28;20561;-70
2022/01/30 09:05:54;;;;;;;13.32;6.20;;;10.00;99.90;;;;;;5006321;28;20572;-70
2022/01/30 09:08:21;;;;;;;14.43;3.70;;;10.20;99.90;;;;;;5012896;28;20231;-77
2022/01/30 09:10:51;;;;;;;10.68;3.33;;;9.80;99.90;;;;;;5013546;28;20733;-74
2022/01/30 09:13:19;;;;;;;10.52;2.95;;;8.80;99.90;;;;;;5013617;28;20261;-72
2022/01/30 09:15:47;;;;;;;8.73;2.83;;;8.10;99.90;;;;;;5014288;28;20205;-72
2022/01/30 09:18:17;;;;;;;8.75;2.97;;;7.80;99.90;;;;;;5013469;28;20213;-74
2022/01/30 09:20:45;;;;;;;12.10;3.60;;;7.50;99.90;;;;;;5013495;28;20221;-74
2022/01/30 09:23:13;;;;;;;11.23;3.63;;;7.30;99.90;;;;;;5013307;28;20208;-73
2022/01/30 09:26:02;;;;;;;8.45;2.60;;;7.20;99.90;;;;;;5013163;28;20209;-73
2022/01/30 09:28:30;;;;;;;11.05;3.85;;;7.10;99.90;;;;;;5013021;28;20237;-74
2022/01/30 09:30:58;;;;;;;15.30;3.67;;;7.00;99.90;;;;;;5012503;28;20264;-73
2022/01/30 09:33:26;;;;;;;13.38;3.10;;;6.90;99.90;;;;;;5013032;28;20212;-73
2022/01/30 09:35:54;;;;;;;9.63;3.33;;;6.90;99.90;;;;;;5013277;28;20201;-72
2022/01/30 09:38:23;;;;;;;12.30;2.72;;;6.90;99.90;;;;;;5012266;28;20288;-75
2022/01/30 09:40:54;;;;;;;16.38;3.88;;;6.90;99.90;;;;;;5012776;28;20245;-75
2022/01/30 09:43:28;;;;;;;14.20;3.20;;;7.00;99.90;;;;;;5006490;28;20229;-73
2022/01/30 09:45:58;;;;;;;12.77;3.03;;;7.10;99.90;;;;;;5007535;28;20662;-75
2022/01/30 09:48:26;;;;;;;14.40;4.05;;;7.10;99.90;;;;;;5012880;28;20673;-74
2022/01/30 09:50:56;;;;;;;15.35;3.47;;;7.20;99.90;;;;;;5012834;28;20320;-73
2022/01/30 09:53:23;;;;;;;11.23;4.35;;;7.20;99.90;;;;;;5012617;28;20240;-74
2022/01/30 09:55:51;;;;;;;8.73;2.20;;;7.30;99.90;;;;;;5012652;28;20585;-74
2022/01/30 09:58:20;;;;;;;9.23;3.10;;;7.30;99.90;;;;;;5012319;28;20271;-73
2022/01/30 10:00:56;;;;;;;17.02;3.35;;;7.30;99.90;;;;;;5012500;28;20233;-71
2022/01/30 10:03:26;;;;;;;13.98;2.97;;;7.40;99.90;;;;;;5012214;28;20205;-76
2022/01/30 10:06:06;;;;;;;11.18;3.08;;;7.60;99.90;;;;;;5012147;28;20239;-76
2022/01/30 10:08:41;;;;;;;11.10;3.20;;;7.70;99.90;;;;;;5012560;28;20220;-79
2022/01/30 10:11:27;;;;;;;10.25;2.40;;;7.70;99.90;;;;;;5011759;28;20696;-71
2022/01/30 10:14:06;;;;;;;12.10;2.97;;;7.80;99.90;;;;;;4994491;28;20296;-74
2022/01/30 10:16:38;;;;;;;15.77;3.67;;;7.90;99.90;;;;;;5012149;28;20299;-77
2022/01/30 10:19:11;;;;;;;13.93;3.53;;;8.20;99.90;;;;;;5009854;28;20201;-75
2022/01/30 10:21:40;;;;;;;11.90;4.10;;;8.40;99.90;;;;;;5010497;28;20309;-75
2022/01/30 10:24:23;;;;;;;10.57;3.50;;;8.60;99.90;;;;;;5007506;28;20722;-73
2022/01/30 10:26:51;;;;;;;14.05;2.95;;;8.60;99.90;;;;;;5005393;28;20296;-76
2022/01/30 10:29:21;;;;;;;6.75;3.00;;;8.60;99.90;;;;;;5010562;28;20236;-73
2022/01/30 10:32:07;;;;;;;12.80;3.58;;;8.70;99.90;;;;;;5011702;28;20319;-75
2022/01/30 10:34:37;;;;;;;12.27;3.25;;;8.50;99.90;;;;;;5011980;28;20213;-75
2022/01/30 10:37:18;;;;;;;13.48;2.78;;;8.50;99.90;;;;;;5011717;28;20236;-75
2022/01/30 10:40:03;;;;;;;14.32;3.45;;;8.60;99.90;;;;;;5012148;28;20209;-74
2022/01/30 10:42:33;;;;;;;10.38;3.42;;;8.40;99.90;;;;;;5006385;28;20229;-75
2022/01/30 10:45:06;;;;;;;10.75;3.13;;;8.40;99.90;;;;;;5012304;28;20670;-76
2022/01/30 10:47:36;;;;;;;12.18;3.10;;;8.60;99.90;;;;;;5011695;28;20189;-75
2022/01/30 10:50:12;;;;;;;12.90;3.55;;;8.60;99.90;;;;;;5011703;28;20244;-74
2022/01/30 10:52:54;;;;;;;6.75;3.10;;;8.40;99.90;;;;;;5011591;28;20601;-75
2022/01/30 10:55:40;;;;;;;14.52;4.68;;;8.40;99.90;;;;;;5011831;28;20237;-74
2022/01/30 10:58:11;;;;;;;8.98;2.55;;;8.30;99.90;;;;;;5011893;28;20260;-76
2022/01/30 11:00:41;;;;;;;7.95;2.50;;;8.30;99.90;;;;;;4994322;28;20232;-75
2022/01/30 11:03:38;;;;;;;15.02;3.50;;;8.40;99.90;;;;;;5011664;28;20197;-73
2022/01/30 11:06:10;;;;;;;9.35;2.60;;;8.60;99.90;;;;;;5011432;28;20200;-73
2022/01/30 11:08:42;;;;;;;8.45;2.13;;;9.00;99.90;;;;;;5008023;28;20228;-75
2022/01/30 11:11:25;;;;;;;7.93;3.35;;;9.40;99.90;;;;;;5005983;28;20323;-74
2022/01/30 11:14:13;;;;;;;6.72;2.80;;;9.40;99.90;;;;;;5011360;28;20284;-73
2022/01/30 11:17:02;;;;;;;10.02;3.00;;;9.50;99.90;;;;;;5011566;28;20259;-74
2022/01/30 11:19:33;;;;;;;9.02;2.70;;;9.40;99.90;;;;;;5011213;28;20566;-73
2022/01/30 11:22:03;;;;;;;11.02;3.40;;;9.20;99.90;;;;;;5013816;28;20314;-74
2022/01/30 11:24:45;;;;;;;10.15;3.30;;;8.80;99.90;;;;;;5015795;28;20208;-75
2022/01/30 11:27:14;;;;;;;15.98;2.88;;;8.90;99.90;;;;;;5015557;28;20235;-74
2022/01/30 11:29:42;;;;;;;12.65;3.13;;;8.80;99.90;;;;;;5015458;28;20208;-76
2022/01/30 11:32:10;;;;;;;16.13;3.85;;;8.60;99.90;;;;;;5015117;28;20663;-74
2022/01/30 11:34:42;;;;;;;12.50;2.95;;;8.40;99.90;;;;;;5015172;28;20304;-74
2022/01/30 11:37:12;;;;;;;11.82;3.10;;;8.20;99.90;;;;;;5015276;28;20288;-75
2022/01/30 11:39:44;;;;;;;13.65;3.95;;;8.00;99.90;;;;;;5015610;28;20320;-75
2022/01/30 11:42:18;;;;;;;14.18;5.32;;;8.20;99.90;;;;;;5014793;28;20256;-75
2022/01/30 11:44:47;;;;;;;19.13;4.55;;;8.30;99.90;;;;;;5009123;28;20210;-74
2022/01/30 11:47:23;;;;;;;15.05;4.22;;;8.30;99.90;;;;;;5015288;28;20300;-75
2022/01/30 11:50:05;;;;;;;14.15;4.50;;;8.20;99.90;;;;;;5015095;28;20285;-75
2022/01/30 11:52:56;;;;;;;14.85;4.00;;;8.00;99.90;;;;;;5014560;28;20267;-75
2022/01/30 11:55:50;;;;;;;12.82;3.58;;;8.00;99.90;;;;;;5014919;28;20205;-75
2022/01/30 11:58:38;;;;;;;11.32;4.00;;;8.00;99.90;;;;;;5011376;28;20637;-73
2022/01/30 12:01:29;;;;;;;13.93;3.67;;;8.10;99.90;;;;;;5008896;28;20221;-75
2022/01/30 12:03:59;;;;;;;17.63;6.60;;;8.30;99.90;;;;;;5009302;28;20229;-75
2022/01/30 12:06:34;;;;;;;16.92;5.57;;;8.40;99.90;;;;;;5011891;28;20190;-74
2022/01/30 12:09:05;;;;;;;15.02;3.55;;;8.30;99.90;;;;;;5014454;28;20208;-74
2022/01/30 12:11:51;;;;;;;13.15;4.30;;;8.20;99.90;;;;;;5014710;28;20264;-75
2022/01/30 12:14:53;;;;;;;13.82;3.22;;;8.20;99.90;;;;;;5014414;28;20201;-75
2022/01/30 12:17:57;;;;;;;18.08;4.60;;;8.30;99.90;;;;;;5014453;28;20287;-75
2022/01/30 12:20:27;;;;;;;16.98;4.20;;;8.40;99.90;;;;;;5014316;28;20725;-74
2022/01/30 12:22:57;;;;;;;19.08;5.43;;;8.40;99.90;;;;;;5014083;28;20633;-75
2022/01/30 12:25:36;;;;;;;15.60;4.00;;;8.20;99.90;;;;;;5014083;28;20749;-74
2022/01/30 12:28:09;;;;;;;13.20;4.15;;;8.20;99.90;;;;;;5014236;28;20260;-75
2022/01/30 12:30:46;;;;;;;15.52;3.97;;;8.20;99.90;;;;;;5007662;28;20264;-74
2022/01/30 12:33:43;;;;;;;17.50;4.78;;;8.20;99.90;;;;;;5013071;28;20308;-74
2022/01/30 12:36:20;;;;;;;16.38;5.85;;;8.20;99.90;;;;;;5013567;28;20201;-72
2022/01/30 12:38:56;;;;;;;15.52;4.07;;;8.20;99.90;;;;;;5011616;28;20267;-73
2022/01/30 12:41:25;;;;;;;16.25;4.07;;;8.10;99.90;;;;;;5014053;28;20229;-75
2022/01/30 12:44:01;;;;;;;17.77;4.20;;;8.30;99.90;;;;;;5014018;28;20572;-73
2022/01/30 12:46:32;;;;;;;17.38;4.53;;;8.50;99.90;;;;;;5013912;28;20197;-75
2022/01/30 12:49:06;;;;;;;16.10;3.63;;;8.40;99.90;;;;;;5013914;28;20308;-75
2022/01/30 12:51:35;;;;;;;17.95;6.65;;;8.40;99.90;;;;;;5013751;28;20271;-74
2022/01/30 12:54:06;;;;;;;11.35;4.65;;;8.30;99.90;;;;;;4995993;28;20263;-75
2022/01/30 12:56:35;;;;;;;18.27;4.55;;;8.40;99.90;;;;;;5013633;28;20296;-75
2022/01/30 12:59:07;;;;;;;21.55;4.30;;;8.50;99.90;;;;;;5013480;28;20776;-74
2022/01/30 13:01:39;;;;;;;13.75;4.10;;;8.30;99.90;;;;;;4995852;28;20745;-75
2022/01/30 13:04:11;;;;;;;18.70;4.25;;;8.20;99.90;;;;;;5013414;28;20654;-75
2022/01/30 13:06:41;;;;;;;15.40;5.80;;;8.30;99.90;;;;;;5013239;28;20272;-74
2022/01/30 13:09:12;;;;;;;11.73;4.18;;;8.30;99.90;;;;;;5006928;28;20251;-75
2022/01/30 13:11:40;;;;;;;14.90;5.07;;;8.40;99.90;;;;;;5008724;28;20263;-75
2022/01/30 13:14:09;;;;;;;14.65;4.32;;;8.60;99.90;;;;;;5013699;28;20288;-75
2022/01/30 13:16:41;;;;;;;16.38;5.30;;;8.50;99.90;;;;;;5013424;28;20237;-75
2022/01/30 13:19:10;;;;;;;17.38;5.30;;;8.70;99.90;;;;;;5013051;28;20231;-75
2022/01/30 13:21:40;;;;;;;16.45;4.30;;;8.70;99.90;;;;;;5013126;28;20257;-74
2022/01/30 13:24:09;;;;;;;13.77;4.30;;;8.70;99.90;;;;;;5013013;28;20284;-74
2022/01/30 13:26:43;;;;;;;17.70;5.38;;;8.60;99.90;;;;;;5013276;28;20312;-75
2022/01/30 13:29:19;;;;;;;14.93;4.20;;;8.50;99.90;;;;;;5012789;28;20212;-75
2022/01/30 13:31:48;;;;;;;16.90;3.47;;;8.30;99.90;;;;;;5012681;28;20257;-75
2022/01/30 13:34:28;;;;;;;20.42;4.13;;;8.20;99.90;;;;;;5012705;28;20205;-75
2022/01/30 13:37:02;;;;;;;15.60;4.47;;;8.30;99.90;;;;;;5012556;28;20239;-75
2022/01/30 13:39:40;;;;;;;9.70;2.90;;;8.30;99.90;;;;;;5006444;28;20217;-73
2022/01/30 13:48:01;;;;;;;7.60;3.83;;;8.50;99.90;;;;;;5008756;28;20208;-75
2022/01/30 13:50:34;;;;;;;11.57;3.97;;;8.60;99.90;;;;;;5012598;28;20584;-75